PADK Airport Information

Runway Information
Runway 05 Length 7790 ft width 200 ft
Elevation 17 ft Threshold 0 ft Heading 61
Runway 23 Length 7790 ft Width 200 ft
Elevation 15 ft Threshold 0 ft Heading 241
Runway 18 Length 7605 ft width 200 ft
Elevation 6 ft Threshold 0 ft Heading 185
Runway 36 Length 7605 ft Width 200 ft
Elevation 4 ft Threshold 0 ft Heading 5
Airport Frequencies
Airport Navaids
Type NDB-DME Name Mount Moffett Frequency 530 KHZ
Type TACAN Name Adak Frequency 113000 KHZ
Airport Weather Information & NOTAM
ADDS - METARS form results

(2226 UTC 22 July 2018)
 
METAR text: PADK 222210Z AUTO 27018KT 10SM -RA OVC016 11/09 A3003 RMK AO2 P0000
Conditions at: PADK (ADAK NAS , AK, US) observed 2210 UTC 22 July 2018
Temperature: 11.0°C (52°F)
Dewpoint: 9.0°C (48°F) [RH = 87%]
Pressure (altimeter): 30.03 inches Hg (1017.0 mb)
Winds: from the W (270 degrees) at 21 MPH (18 knots; 9.4 m/s)
Visibility: 10 or more miles (16+ km)
Ceiling: 1600 feet AGL
Clouds: overcast cloud deck at 1600 feet AGL
Weather: -RA  (light rain)

METAR text: PADK 222156Z AUTO 26014KT 10SM -RA OVC014 11/09 A3003 RMK AO2 SLP170 P0001 T01060094
Conditions at: PADK (ADAK NAS , AK, US) observed 2156 UTC 22 July 2018
Temperature: 10.6°C (51°F)
Dewpoint: 9.4°C (49°F) [RH = 92%]
Pressure (altimeter): 30.03 inches Hg (1017.0 mb)
[Sea-level pressure: 1017.0 mb]
Winds: from the W (260 degrees) at 16 MPH (14 knots; 7.3 m/s)
Visibility: 10 or more miles (16+ km)
Ceiling: 1400 feet AGL
Clouds: overcast cloud deck at 1400 feet AGL
Weather: -RA  (light rain)

METAR text: PADK 222146Z AUTO 25017KT 10SM -RA BKN014 BKN047 OVC060 11/09 A3003 RMK AO2 P0001
Conditions at: PADK (ADAK NAS , AK, US) observed 2146 UTC 22 July 2018
Temperature: 11.0°C (52°F)
Dewpoint: 9.0°C (48°F) [RH = 87%]
Pressure (altimeter): 30.03 inches Hg (1017.0 mb)
Winds: from the WSW (250 degrees) at 20 MPH (17 knots; 8.8 m/s)
Visibility: 10 or more miles (16+ km)
Ceiling: 1400 feet AGL
Clouds: broken clouds at 1400 feet AGL
broken clouds at 4700 feet AGL
overcast cloud deck at 6000 feet AGL
Weather: -RA  (light rain)